createdAt,value
2018-12-16T00:00:29.994Z,101152.70
2018-12-16T00:02:55.936Z,101153.52
2018-12-16T00:05:21.917Z,101151.48
2018-12-16T00:07:47.889Z,101139.05
2018-12-16T00:10:13.884Z,101138.78
2018-12-16T00:12:39.846Z,101135.88
2018-12-16T00:15:05.872Z,101136.52
2018-12-16T00:17:31.839Z,101134.46
2018-12-16T00:19:57.842Z,101123.17
2018-12-16T00:22:29.744Z,101125.47
2018-12-16T00:24:51.888Z,101118.98
2018-12-16T00:27:17.912Z,101113.38
2018-12-16T00:29:43.889Z,101118.13
2018-12-16T00:32:09.876Z,101118.00
2018-12-16T00:34:35.830Z,101111.66
2018-12-16T00:37:01.826Z,101113.82
2018-12-16T00:39:27.908Z,101110.36
2018-12-16T00:41:53.893Z,101102.92
2018-12-16T00:44:19.892Z,101107.32
2018-12-16T00:46:45.865Z,101104.73
2018-12-16T00:49:11.883Z,101102.16
2018-12-16T00:51:37.866Z,101112.15
2018-12-16T00:54:03.883Z,101107.13
2018-12-16T00:56:29.849Z,101110.47
2018-12-16T00:58:55.947Z,101115.68
2018-12-16T01:01:22.001Z,101111.13
2018-12-16T01:03:48.067Z,101116.54
2018-12-16T01:06:14.073Z,101120.52
2018-12-16T01:08:40.068Z,101118.19
2018-12-16T01:11:06.569Z,101125.20
2018-12-16T01:13:39.545Z,101118.27
2018-12-16T01:16:05.573Z,101103.50
2018-12-16T01:18:31.551Z,101112.15
2018-12-16T01:20:57.519Z,101100.30
2018-12-16T01:23:23.568Z,101093.27
2018-12-16T01:25:49.518Z,101094.63
2018-12-16T01:28:15.499Z,101082.47
2018-12-16T01:30:41.605Z,101085.00
2018-12-16T01:33:07.612Z,101084.19
2018-12-16T01:35:33.576Z,101075.94
2018-12-16T01:37:59.565Z,101067.22
2018-12-16T01:40:26.084Z,101071.08
2018-12-16T01:42:52.053Z,101060.25
2018-12-16T01:45:18.071Z,101065.50
2018-12-16T01:47:44.052Z,101048.70
2018-12-16T01:50:10.132Z,101043.89
2018-12-16T01:52:36.088Z,101037.89
2018-12-16T01:55:02.099Z,101034.78
2018-12-16T01:57:28.048Z,101037.86
2018-12-16T01:59:54.710Z,101027.16
2018-12-16T02:02:20.703Z,101016.34
2018-12-16T02:04:46.668Z,101017.63
2018-12-16T02:07:12.674Z,101014.59
2018-12-16T02:09:38.707Z,101018.02
2018-12-16T02:12:04.684Z,101014.09
2018-12-16T02:14:30.687Z,101021.79
2018-12-16T02:16:56.665Z,101011.58
2018-12-16T02:19:22.645Z,101005.12
2018-12-16T02:21:48.625Z,101008.09
2018-12-16T02:24:14.623Z,101004.97
2018-12-16T02:26:40.699Z,100998.17
2018-12-16T02:29:06.657Z,100996.78
2018-12-16T02:31:32.663Z,100994.56
2018-12-16T02:33:58.661Z,101001.05
2018-12-16T02:36:24.671Z,100988.11
2018-12-16T02:38:50.639Z,100985.95
2018-12-16T02:41:16.644Z,100980.86
2018-12-16T02:43:42.619Z,100974.30
2018-12-16T02:46:08.619Z,100970.00
2018-12-16T02:48:34.955Z,100960.11
2018-12-16T02:51:00.953Z,100957.52
2018-12-16T02:53:26.974Z,100953.17
2018-12-16T02:55:52.924Z,100939.38
2018-12-16T02:58:18.925Z,100936.34
2018-12-16T03:00:44.944Z,100928.94
2018-12-16T03:03:11.088Z,100914.27
2018-12-16T03:05:37.089Z,100900.36
2018-12-16T03:08:03.220Z,100900.38
2018-12-16T03:10:29.172Z,100899.48
2018-12-16T03:12:55.127Z,100895.95
2018-12-16T03:15:21.144Z,100889.03
2018-12-16T03:17:47.146Z,100885.91
2018-12-16T03:20:13.132Z,100874.78
2018-12-16T03:22:39.112Z,100868.37
2018-12-16T03:25:05.429Z,100870.60
2018-12-16T03:27:31.408Z,100867.52
2018-12-16T03:29:57.403Z,100875.78
2018-12-16T03:32:23.356Z,100881.41
2018-12-16T03:34:49.378Z,100876.60
2018-12-16T03:37:15.350Z,100876.63
2018-12-16T03:39:41.340Z,100865.82
2018-12-16T03:42:07.343Z,100853.58
2018-12-16T03:44:33.351Z,100844.16
2018-12-16T03:46:59.327Z,100844.98
2018-12-16T03:49:25.289Z,100840.70
2018-12-16T03:51:51.558Z,100838.52
2018-12-16T03:54:17.523Z,100832.99
2018-12-16T03:56:43.575Z,100836.42
2018-12-16T03:59:15.031Z,100839.02
2018-12-16T04:01:41.021Z,100839.90
2018-12-16T04:04:06.976Z,100834.71
2018-12-16T04:06:32.997Z,100823.90
2018-12-16T04:08:59.005Z,100823.87
2018-12-16T04:11:24.977Z,100835.94
2018-12-16T04:13:51.084Z,100831.24
2018-12-16T04:16:17.062Z,100831.59
2018-12-16T04:18:48.326Z,100816.52
2018-12-16T04:21:14.568Z,100828.19
2018-12-16T04:23:40.566Z,100810.55
2018-12-16T04:26:13.565Z,100805.34
2018-12-16T04:28:39.992Z,100789.73
2018-12-16T04:31:06.024Z,100789.67
2018-12-16T04:33:31.987Z,100787.98
2018-12-16T04:35:57.975Z,100782.80
2018-12-16T04:38:23.945Z,100785.42
2018-12-16T04:40:49.940Z,100775.44
2018-12-16T04:43:15.898Z,100769.02
2018-12-16T04:45:41.910Z,100772.47
2018-12-16T04:48:08.044Z,100763.36
2018-12-16T04:50:34.001Z,100758.20
2018-12-16T04:52:59.985Z,100763.39
2018-12-16T04:55:25.988Z,100746.53
2018-12-16T04:57:52.075Z,100750.00
2018-12-16T05:00:18.126Z,100737.91
2018-12-16T05:02:44.093Z,100739.14
2018-12-16T05:05:10.101Z,100741.80
2018-12-16T05:07:36.053Z,100732.72
2018-12-16T05:10:14.372Z,100734.45
2018-12-16T05:12:40.358Z,100730.11
2018-12-16T05:15:06.358Z,100725.79
2018-12-16T05:17:32.359Z,100720.61
2018-12-16T05:19:58.345Z,100708.52
2018-12-16T05:22:24.343Z,100718.45
2018-12-16T05:24:50.311Z,100707.21
2018-12-16T05:27:16.368Z,100705.04
2018-12-16T05:29:42.335Z,100697.27
2018-12-16T05:32:08.349Z,100686.89
2018-12-16T05:34:34.300Z,100692.94
2018-12-16T05:37:00.319Z,100686.00
2018-12-16T05:39:26.266Z,100683.84
2018-12-16T05:41:52.262Z,100682.56
2018-12-16T05:44:18.214Z,100670.84
2018-12-16T05:46:44.212Z,100676.94
2018-12-16T05:49:10.175Z,100673.91
2018-12-16T05:51:36.281Z,100673.05
2018-12-16T05:54:02.276Z,100674.77
2018-12-16T05:56:28.245Z,100676.52
2018-12-16T05:58:54.267Z,100678.66
2018-12-16T06:01:20.316Z,100675.23
2018-12-16T06:03:46.262Z,100667.81
2018-12-16T06:06:15.378Z,100662.66
2018-12-16T06:08:41.579Z,100662.67
2018-12-16T06:11:07.574Z,100667.41
2018-12-16T06:13:33.556Z,100669.16
2018-12-16T06:15:59.536Z,100673.07
2018-12-16T06:18:25.541Z,100678.23
2018-12-16T06:20:51.602Z,100685.59
2018-12-16T06:23:17.593Z,100686.47
2018-12-16T06:25:43.540Z,100701.59
2018-12-16T06:28:09.528Z,100701.59
2018-12-16T06:30:36.131Z,100705.05
2018-12-16T06:33:02.125Z,100706.33
2018-12-16T06:35:28.116Z,100707.64
2018-12-16T06:37:54.127Z,100703.34
2018-12-16T06:40:20.105Z,100686.05
2018-12-16T06:42:46.070Z,100684.73
2018-12-16T06:45:12.072Z,100669.60
2018-12-16T06:47:38.048Z,100660.09
2018-12-16T06:50:05.423Z,100652.30
2018-12-16T06:52:31.430Z,100654.88
2018-12-16T06:54:57.395Z,100662.69
2018-12-16T06:57:23.516Z,100651.41
2018-12-16T06:59:49.472Z,100660.52
2018-12-16T07:02:15.432Z,100659.64
2018-12-16T07:04:41.424Z,100642.78
2018-12-16T07:07:07.509Z,100643.65
2018-12-16T07:09:33.562Z,100646.68
2018-12-16T07:11:59.532Z,100631.58
2018-12-16T07:14:25.540Z,100641.50
2018-12-16T07:16:51.527Z,100641.08
2018-12-16T07:19:17.635Z,100641.06
2018-12-16T07:21:43.719Z,100647.11
2018-12-16T07:24:09.753Z,100644.50
2018-12-16T07:26:35.713Z,100625.48
2018-12-16T07:29:01.695Z,100628.92
2018-12-16T07:31:27.702Z,100633.27
2018-12-16T07:33:53.826Z,100638.90
2018-12-16T07:36:19.905Z,100645.81
2018-12-16T07:38:45.924Z,100641.50
2018-12-16T07:41:11.927Z,100647.14
2018-12-16T07:43:38.003Z,100633.28
2018-12-16T07:46:04.002Z,100647.53
2018-12-16T07:48:30.302Z,100644.52
2018-12-16T07:50:56.306Z,100641.05
2018-12-16T07:53:22.904Z,100631.52
2018-12-16T07:55:48.906Z,100624.19
2018-12-16T07:58:14.881Z,100616.84
2018-12-16T08:00:41.024Z,100624.17
2018-12-16T08:03:07.086Z,100629.76
2018-12-16T08:05:33.095Z,100628.05
2018-12-16T08:07:59.191Z,100633.70
2018-12-16T08:10:25.336Z,100611.66
2018-12-16T08:12:51.306Z,100620.31
2018-12-16T08:15:17.300Z,100609.89
2018-12-16T08:17:43.289Z,100611.61
2018-12-16T08:20:09.374Z,100612.89
2018-12-16T08:22:35.489Z,100621.14
2018-12-16T08:25:01.565Z,100609.81
2018-12-16T08:27:27.520Z,100615.94
2018-12-16T08:29:53.529Z,100608.09
2018-12-16T08:32:19.479Z,100601.23
2018-12-16T08:34:45.536Z,100602.98
2018-12-16T08:37:11.553Z,100611.61
2018-12-16T08:39:37.507Z,100614.23
2018-12-16T08:42:03.525Z,100606.02
2018-12-16T08:44:29.497Z,100612.52
2018-12-16T08:46:55.573Z,100615.93
2018-12-16T08:49:21.527Z,100617.66
2018-12-16T08:51:47.570Z,100612.47
2018-12-16T08:54:13.568Z,100611.59
2018-12-16T08:56:39.657Z,100616.76
2018-12-16T08:59:05.752Z,100621.47
2018-12-16T09:01:31.833Z,100616.30
2018-12-16T09:03:58.032Z,100617.18
2018-12-16T09:06:24.041Z,100624.52
2018-12-16T09:08:50.432Z,100621.89
2018-12-16T09:11:16.551Z,100631.06
2018-12-16T09:13:42.544Z,100621.02
2018-12-16T09:16:08.517Z,100619.35
2018-12-16T09:18:34.658Z,100628.02
2018-12-16T09:21:00.624Z,100624.52
2018-12-16T09:23:26.577Z,100625.30
2018-12-16T09:25:52.605Z,100633.16
2018-12-16T09:28:18.570Z,100621.07
2018-12-16T09:30:44.544Z,100611.92
2018-12-16T09:33:10.541Z,100618.03
2018-12-16T09:35:36.519Z,100609.67
2018-12-16T09:38:02.534Z,100613.22
2018-12-16T09:40:28.548Z,100624.38
2018-12-16T09:42:54.789Z,100617.95
2018-12-16T09:45:20.813Z,100625.72
2018-12-16T09:47:46.903Z,100607.99
2018-12-16T09:50:12.887Z,100607.19
2018-12-16T09:52:38.910Z,100606.69
2018-12-16T09:55:05.339Z,100610.13
2018-12-16T09:57:31.336Z,100601.05
2018-12-16T09:59:57.329Z,100592.37
2018-12-16T10:02:23.335Z,100592.83
2018-12-16T10:04:49.310Z,100597.61
2018-12-16T10:07:15.298Z,100589.02
2018-12-16T10:09:41.264Z,100580.76
2018-12-16T10:12:07.302Z,100591.53
2018-12-16T10:14:33.963Z,100580.34
2018-12-16T10:16:59.978Z,100570.28
2018-12-16T10:19:26.060Z,100568.89
2018-12-16T10:21:52.012Z,100561.24
2018-12-16T10:24:18.701Z,100557.19
2018-12-16T10:26:45.994Z,100558.13
2018-12-16T10:29:12.223Z,100552.00
2018-12-16T10:31:38.218Z,100556.88
2018-12-16T10:34:04.217Z,100551.47
2018-12-16T10:36:30.186Z,100549.76
2018-12-16T10:38:56.246Z,100553.34
2018-12-16T10:41:22.245Z,100553.35
2018-12-16T10:43:48.254Z,100549.92
2018-12-16T10:46:14.226Z,100541.39
2018-12-16T10:48:40.266Z,100541.19
2018-12-16T10:51:06.256Z,100537.70
2018-12-16T10:53:32.248Z,100528.63
2018-12-16T10:55:58.250Z,100520.93
2018-12-16T10:58:24.233Z,100515.61
2018-12-16T11:00:56.371Z,100511.83
2018-12-16T11:03:22.425Z,100510.12
2018-12-16T11:05:48.397Z,100504.41
2018-12-16T11:08:14.397Z,100502.16
2018-12-16T11:10:40.368Z,100497.14
2018-12-16T11:13:07.307Z,100486.22
2018-12-16T11:15:33.285Z,100480.61
2018-12-16T11:17:59.279Z,100485.32
2018-12-16T11:20:25.279Z,100482.67
2018-12-16T11:22:51.314Z,100474.92
2018-12-16T11:25:17.368Z,100472.73
2018-12-16T11:27:43.324Z,100478.18
2018-12-16T11:30:10.096Z,100483.14
2018-12-16T11:32:36.581Z,100472.00
2018-12-16T11:35:04.480Z,100470.22
2018-12-16T11:37:30.486Z,100470.64
2018-12-16T11:39:56.566Z,100465.72
2018-12-16T11:42:22.523Z,100465.53
2018-12-16T11:44:48.558Z,100468.23
2018-12-16T11:47:14.516Z,100464.23
2018-12-16T11:49:40.506Z,100461.56
2018-12-16T11:52:06.462Z,100467.98
2018-12-16T11:54:32.534Z,100459.45
2018-12-16T11:56:58.502Z,100454.58
2018-12-16T11:59:24.523Z,100452.56
2018-12-16T12:01:50.519Z,100450.11
2018-12-16T12:04:16.515Z,100450.14
2018-12-16T12:06:42.487Z,100447.84
2018-12-16T12:09:08.486Z,100444.42
2018-12-16T12:11:34.493Z,100432.04
2018-12-16T12:14:00.553Z,100440.03
2018-12-16T12:16:26.572Z,100429.28
2018-12-16T12:18:58.051Z,100433.52
2018-12-16T12:21:24.715Z,100431.20
2018-12-16T12:23:50.700Z,100429.20
2018-12-16T12:26:16.706Z,100429.28
2018-12-16T12:28:43.016Z,100424.34
2018-12-16T12:31:09.172Z,100422.72
2018-12-16T12:33:35.154Z,100422.88
2018-12-16T12:36:01.165Z,100420.77
2018-12-16T12:38:27.174Z,100417.20
2018-12-16T12:40:53.158Z,100422.98
2018-12-16T12:43:19.238Z,100423.80
2018-12-16T12:45:45.190Z,100423.70
2018-12-16T12:48:11.219Z,100423.43
2018-12-16T12:50:37.187Z,100421.09
2018-12-16T12:53:03.246Z,100420.20
2018-12-16T12:55:29.230Z,100427.77
2018-12-16T12:57:55.307Z,100427.14
2018-12-16T13:00:21.366Z,100417.59
2018-12-16T13:02:47.448Z,100417.59
2018-12-16T13:05:13.455Z,100424.59
2018-12-16T13:07:39.441Z,100418.67
2018-12-16T13:10:07.470Z,100424.10
2018-12-16T13:12:33.466Z,100423.69
2018-12-16T13:14:59.430Z,100419.00
2018-12-16T13:17:25.433Z,100420.98
2018-12-16T13:19:51.401Z,100425.20
2018-12-16T13:22:17.403Z,100416.17
2018-12-16T13:24:55.637Z,100411.92
2018-12-16T13:27:21.623Z,100421.30
2018-12-16T13:29:47.641Z,100423.40
2018-12-16T13:32:13.652Z,100422.77
2018-12-16T13:34:39.716Z,100420.22
2018-12-16T13:37:06.244Z,100421.58
2018-12-16T13:39:32.358Z,100419.75
2018-12-16T13:41:58.320Z,100414.37
2018-12-16T13:44:24.262Z,100414.34
2018-12-16T13:46:50.275Z,100418.77
2018-12-16T13:49:16.244Z,100413.70
2018-12-16T13:51:42.242Z,100416.17
2018-12-16T13:54:08.207Z,100410.94
2018-12-16T13:56:34.234Z,100409.66
2018-12-16T13:59:00.290Z,100417.95
2018-12-16T14:01:26.191Z,100416.87
2018-12-16T14:03:52.200Z,100412.48
2018-12-16T14:06:18.131Z,100412.00
2018-12-16T14:08:44.142Z,100418.61
2018-12-16T14:11:10.102Z,100415.19
2018-12-16T14:13:36.212Z,100413.57
2018-12-16T14:16:02.204Z,100415.83
2018-12-16T14:18:28.210Z,100422.78
2018-12-16T14:20:54.180Z,100411.38
2018-12-16T14:23:20.247Z,100414.62
2018-12-16T14:25:48.066Z,100411.59
2018-12-16T14:28:14.304Z,100418.80
2018-12-16T14:30:40.255Z,100422.27
2018-12-16T14:33:06.255Z,100424.10
2018-12-16T14:35:32.543Z,100427.12
2018-12-16T14:37:58.863Z,100429.59
2018-12-16T14:40:24.890Z,100433.70
2018-12-16T14:42:50.936Z,100429.23
2018-12-16T14:45:16.882Z,100430.61
2018-12-16T14:47:42.903Z,100428.91
2018-12-16T14:50:08.884Z,100427.03
2018-12-16T14:52:34.940Z,100432.66
2018-12-16T14:55:00.953Z,100436.69
2018-12-16T14:57:26.922Z,100442.03
2018-12-16T14:59:52.961Z,100441.57
2018-12-16T15:02:18.983Z,100442.88
2018-12-16T15:04:44.975Z,100449.73
2018-12-16T15:07:10.969Z,100440.36
2018-12-16T15:09:36.961Z,100441.23
2018-12-16T15:12:02.975Z,100441.58
2018-12-16T15:14:28.936Z,100443.77
2018-12-16T15:17:02.062Z,100442.88
2018-12-16T15:19:28.581Z,100446.28
2018-12-16T15:21:54.774Z,100448.89
2018-12-16T15:24:20.869Z,100445.88
2018-12-16T15:26:46.854Z,100447.13
2018-12-16T15:29:12.878Z,100449.84
2018-12-16T15:31:38.859Z,100450.60
2018-12-16T15:34:04.855Z,100454.09
2018-12-16T15:36:30.854Z,100453.26
2018-12-16T15:38:56.858Z,100456.29
2018-12-16T15:41:22.855Z,100458.41
2018-12-16T15:43:48.857Z,100456.70
2018-12-16T15:46:14.964Z,100461.72
2018-12-16T15:48:40.978Z,100462.55
2018-12-16T15:51:06.948Z,100454.25
2018-12-16T15:53:32.968Z,100453.81
2018-12-16T15:55:58.990Z,100461.34
2018-12-16T15:58:25.006Z,100464.73
2018-12-16T16:00:51.012Z,100458.26
2018-12-16T16:03:17.038Z,100461.63
2018-12-16T16:05:43.030Z,100458.54
2018-12-16T16:08:16.183Z,100476.38
2018-12-16T16:10:37.173Z,100475.47
2018-12-16T16:13:03.159Z,100472.96
2018-12-16T16:15:29.236Z,100475.30
2018-12-16T16:17:55.201Z,100480.33
2018-12-16T16:20:21.293Z,100487.90
2018-12-16T16:22:47.435Z,100491.15
2018-12-16T16:25:13.443Z,100488.06
2018-12-16T16:27:39.523Z,100488.45
2018-12-16T16:30:07.115Z,100485.87
2018-12-16T16:32:33.287Z,100494.48
2018-12-16T16:34:59.255Z,100496.06
2018-12-16T16:37:25.284Z,100495.45
2018-12-16T16:39:51.253Z,100502.13
2018-12-16T16:42:17.283Z,100501.05
2018-12-16T16:44:43.267Z,100504.45
2018-12-16T16:47:09.238Z,100497.16
2018-12-16T16:49:35.243Z,100496.05
2018-12-16T16:52:01.323Z,100497.88
2018-12-16T16:54:27.327Z,100505.17
2018-12-16T16:56:53.383Z,100504.39
2018-12-16T16:59:20.852Z,100506.73
2018-12-16T17:01:46.929Z,100505.97
2018-12-16T17:04:13.007Z,100502.89
2018-12-16T17:06:39.002Z,100499.77
2018-12-16T17:09:06.531Z,100509.94
2018-12-16T17:11:32.550Z,100525.30
2018-12-16T17:13:58.988Z,100524.30
2018-12-16T17:16:25.006Z,100525.47
2018-12-16T17:18:51.614Z,100521.29
2018-12-16T17:21:17.618Z,100521.70
2018-12-16T17:23:43.582Z,100522.12
2018-12-16T17:26:09.694Z,100526.34
2018-12-16T17:28:35.708Z,100535.23
2018-12-16T17:31:01.801Z,100531.08
2018-12-16T17:33:27.811Z,100534.58
2018-12-16T17:35:53.826Z,100531.09
2018-12-16T17:38:19.879Z,100536.00
2018-12-16T17:40:45.893Z,100537.72
2018-12-16T17:43:11.974Z,100537.76
2018-12-16T17:45:38.032Z,100547.28
2018-12-16T17:48:04.005Z,100546.55
2018-12-16T17:50:30.144Z,100549.75
2018-12-16T17:52:56.189Z,100554.88
2018-12-16T17:55:22.325Z,100546.58
2018-12-16T17:57:48.407Z,100545.61
2018-12-16T18:00:14.581Z,100535.27
2018-12-16T18:02:40.544Z,100533.60
2018-12-16T18:05:06.535Z,100536.98
2018-12-16T18:07:32.492Z,100535.17
2018-12-16T18:09:58.631Z,100541.20
2018-12-16T18:12:24.608Z,100535.98
2018-12-16T18:14:50.643Z,100535.59
2018-12-16T18:17:16.637Z,100530.80
2018-12-16T18:19:42.603Z,100539.42
2018-12-16T18:22:13.955Z,100546.74
2018-12-16T18:24:36.734Z,100547.58
2018-12-16T18:27:02.764Z,100547.16
2018-12-16T18:29:28.821Z,100549.41
2018-12-16T18:31:54.834Z,100541.55
2018-12-16T18:34:20.806Z,100541.53
2018-12-16T18:36:46.865Z,100539.77
2018-12-16T18:39:12.891Z,100542.44
2018-12-16T18:41:39.888Z,100538.94
2018-12-16T18:44:06.582Z,100536.69
2018-12-16T18:46:32.561Z,100541.48
2018-12-16T18:48:58.749Z,100540.12
2018-12-16T18:51:24.768Z,100543.59
2018-12-16T18:53:50.762Z,100554.89
2018-12-16T18:56:16.846Z,100555.95
2018-12-16T18:58:42.810Z,100555.78
2018-12-16T19:01:08.842Z,100564.39
2018-12-16T19:03:34.832Z,100561.02
2018-12-16T19:06:00.848Z,100559.78
2018-12-16T19:08:26.963Z,100557.55
2018-12-16T19:10:53.007Z,100557.55
2018-12-16T19:13:19.023Z,100556.61
2018-12-16T19:15:45.050Z,100554.88
2018-12-16T19:18:11.059Z,100559.20
2018-12-16T19:20:37.096Z,100560.14
2018-12-16T19:23:03.161Z,100574.19
2018-12-16T19:25:29.167Z,100565.51
2018-12-16T19:27:55.241Z,100567.64
2018-12-16T19:30:21.231Z,100564.53
2018-12-16T19:32:47.240Z,100563.63
2018-12-16T19:35:13.273Z,100559.67
2018-12-16T19:37:39.281Z,100566.69
2018-12-16T19:40:05.462Z,100567.31
2018-12-16T19:42:31.547Z,100564.11
2018-12-16T19:44:57.567Z,100564.56
2018-12-16T19:47:23.609Z,100569.72
2018-12-16T19:49:49.653Z,100569.59
2018-12-16T19:52:15.739Z,100573.61
2018-12-16T19:54:42.177Z,100576.09
2018-12-16T19:57:08.351Z,100585.45
2018-12-16T19:59:34.389Z,100585.78
2018-12-16T20:02:00.413Z,100586.25
2018-12-16T20:04:28.419Z,100590.60
2018-12-16T20:06:54.515Z,100598.26
2018-12-16T20:09:20.683Z,100597.41
2018-12-16T20:11:46.686Z,100588.33
2018-12-16T20:14:12.708Z,100589.05
2018-12-16T20:16:38.686Z,100593.05
2018-12-16T20:19:04.808Z,100599.08
2018-12-16T20:21:30.863Z,100590.18
2018-12-16T20:23:56.918Z,100591.38
2018-12-16T20:26:23.123Z,100587.67
2018-12-16T20:28:49.150Z,100599.23
2018-12-16T20:31:15.148Z,100597.41
2018-12-16T20:33:41.167Z,100596.58
2018-12-16T20:36:07.352Z,100591.28
2018-12-16T20:38:33.383Z,100588.27
2018-12-16T20:40:59.483Z,100586.48
2018-12-16T20:43:25.498Z,100585.27
2018-12-16T20:45:51.722Z,100574.43
2018-12-16T20:48:17.760Z,100569.17
2018-12-16T20:50:43.766Z,100565.16
2018-12-16T20:53:09.767Z,100569.29
2018-12-16T20:55:35.844Z,100571.38
2018-12-16T20:58:01.937Z,100575.32
2018-12-16T21:00:28.005Z,100578.27
2018-12-16T21:02:53.993Z,100580.80
2018-12-16T21:05:20.034Z,100588.09
2018-12-16T21:07:46.154Z,100592.82
2018-12-16T21:10:12.127Z,100606.71
2018-12-16T21:12:44.415Z,100605.36
2018-12-16T21:15:16.459Z,100604.52
2018-12-16T21:17:48.643Z,100614.27
2018-12-16T21:20:14.629Z,100622.42
2018-12-16T21:22:40.589Z,100619.80
2018-12-16T21:25:06.623Z,100625.77
2018-12-16T21:27:33.757Z,100630.14
2018-12-16T21:29:59.747Z,100646.23
2018-12-16T21:32:25.784Z,100641.03
2018-12-16T21:34:51.769Z,100643.95
2018-12-16T21:37:17.733Z,100658.69
2018-12-16T21:39:43.743Z,100664.70
2018-12-16T21:42:09.733Z,100660.41
2018-12-16T21:44:35.711Z,100666.56
2018-12-16T21:47:01.713Z,100661.34
2018-12-16T21:49:27.709Z,100660.44
2018-12-16T21:51:53.659Z,100660.83
2018-12-16T21:54:19.657Z,100654.73
2018-12-16T21:56:45.735Z,100653.34
2018-12-16T21:59:11.740Z,100663.28
2018-12-16T22:01:37.738Z,100667.38
2018-12-16T22:04:03.693Z,100671.20
2018-12-16T22:06:29.696Z,100676.48
2018-12-16T22:08:55.734Z,100676.59
2018-12-16T22:11:21.737Z,100674.30
2018-12-16T22:13:47.694Z,100666.50
2018-12-16T22:16:13.702Z,100664.02
2018-12-16T22:18:39.686Z,100654.63
2018-12-16T22:21:05.648Z,100657.19
2018-12-16T22:23:31.640Z,100661.41
2018-12-16T22:25:57.638Z,100662.38
2018-12-16T22:28:23.838Z,100667.37
2018-12-16T22:30:49.977Z,100663.95
2018-12-16T22:33:16.036Z,100673.11
2018-12-16T22:35:42.112Z,100678.93
2018-12-16T22:38:08.108Z,100684.47
2018-12-16T22:40:34.449Z,100686.23
2018-12-16T22:43:00.435Z,100677.59
2018-12-16T22:45:26.443Z,100675.25
2018-12-16T22:47:52.517Z,100686.19
2018-12-16T22:50:18.663Z,100682.94
2018-12-16T22:52:44.646Z,100682.11
2018-12-16T22:55:10.653Z,100680.03
2018-12-16T22:57:36.606Z,100682.34
2018-12-16T23:00:03.721Z,100682.41
2018-12-16T23:02:29.691Z,100686.56
2018-12-16T23:04:55.757Z,100692.55
2018-12-16T23:07:21.765Z,100690.43
2018-12-16T23:09:47.733Z,100697.05
2018-12-16T23:12:13.759Z,100690.00
2018-12-16T23:14:39.825Z,100693.81
2018-12-16T23:17:05.843Z,100696.51
2018-12-16T23:19:31.915Z,100693.84
2018-12-16T23:21:57.890Z,100700.36
2018-12-16T23:24:24.910Z,100698.69
2018-12-16T23:26:50.977Z,100697.89
2018-12-16T23:29:16.997Z,100700.31
2018-12-16T23:31:42.990Z,100705.23
2018-12-16T23:34:08.995Z,100702.53
2018-12-16T23:36:35.032Z,100702.95
2018-12-16T23:39:01.101Z,100702.02
2018-12-16T23:41:27.267Z,100702.02
2018-12-16T23:43:53.465Z,100705.65
2018-12-16T23:46:19.471Z,100700.78
2018-12-16T23:48:45.435Z,100703.09
2018-12-16T23:51:11.423Z,100699.11
2018-12-16T23:53:37.419Z,100703.36
2018-12-16T23:56:03.369Z,100707.63
2018-12-16T23:58:29.385Z,100699.41
